sensor_id;sensor_type;location;lat;lon;timestamp;P1;durP1;ratioP1;P2;durP2;ratioP2
75810;SDS011;64449;50.016;19.954;2022-11-15T00:02:02;13.90;;;6.80;;
75810;SDS011;64449;50.016;19.954;2022-11-15T00:04:29;14.00;;;7.80;;
75810;SDS011;64449;50.016;19.954;2022-11-15T00:06:55;13.30;;;6.70;;
75810;SDS011;64449;50.016;19.954;2022-11-15T00:09:20;13.40;;;7.00;;
75810;SDS011;64449;50.016;19.954;2022-11-15T00:11:45;13.20;;;7.40;;
75810;SDS011;64449;50.016;19.954;2022-11-15T00:14:11;14.00;;;7.30;;
75810;SDS011;64449;50.016;19.954;2022-11-15T00:16:36;15.00;;;7.40;;
75810;SDS011;64449;50.016;19.954;2022-11-15T00:19:02;16.10;;;8.10;;
75810;SDS011;64449;50.016;19.954;2022-11-15T00:21:27;15.60;;;7.80;;
75810;SDS011;64449;50.016;19.954;2022-11-15T00:23:53;12.40;;;6.50;;
75810;SDS011;64449;50.016;19.954;2022-11-15T00:26:18;14.90;;;7.20;;
75810;SDS011;64449;50.016;19.954;2022-11-15T00:28:44;13.80;;;7.50;;
75810;SDS011;64449;50.016;19.954;2022-11-15T00:31:11;13.00;;;7.10;;
75810;SDS011;64449;50.016;19.954;2022-11-15T00:33:38;12.70;;;6.60;;
75810;SDS011;64449;50.016;19.954;2022-11-15T00:36:05;12.90;;;6.70;;
75810;SDS011;64449;50.016;19.954;2022-11-15T00:38:32;13.00;;;6.80;;
75810;SDS011;64449;50.016;19.954;2022-11-15T00:40:58;13.30;;;6.20;;
75810;SDS011;64449;50.016;19.954;2022-11-15T00:43:24;13.20;;;6.90;;
75810;SDS011;64449;50.016;19.954;2022-11-15T00:45:50;11.00;;;6.20;;
75810;SDS011;64449;50.016;19.954;2022-11-15T00:48:15;14.60;;;7.10;;
75810;SDS011;64449;50.016;19.954;2022-11-15T00:50:40;12.90;;;6.40;;
75810;SDS011;64449;50.016;19.954;2022-11-15T00:53:06;13.50;;;6.20;;
75810;SDS011;64449;50.016;19.954;2022-11-15T00:55:31;10.20;;;6.40;;
75810;SDS011;64449;50.016;19.954;2022-11-15T00:57:57;11.40;;;6.40;;
75810;SDS011;64449;50.016;19.954;2022-11-15T01:00:22;13.50;;;6.80;;
75810;SDS011;64449;50.016;19.954;2022-11-15T01:02:48;12.30;;;5.80;;
75810;SDS011;64449;50.016;19.954;2022-11-15T01:05:13;14.90;;;7.00;;
75810;SDS011;64449;50.016;19.954;2022-11-15T01:07:38;13.50;;;7.60;;
75810;SDS011;64449;50.016;19.954;2022-11-15T01:10:04;14.70;;;7.50;;
75810;SDS011;64449;50.016;19.954;2022-11-15T01:12:30;13.10;;;7.60;;
75810;SDS011;64449;50.016;19.954;2022-11-15T01:14:56;14.20;;;8.10;;
75810;SDS011;64449;50.016;19.954;2022-11-15T01:17:21;13.50;;;7.40;;
75810;SDS011;64449;50.016;19.954;2022-11-15T01:19:47;14.60;;;7.60;;
75810;SDS011;64449;50.016;19.954;2022-11-15T01:22:12;14.70;;;6.90;;
75810;SDS011;64449;50.016;19.954;2022-11-15T01:24:38;13.20;;;6.80;;
75810;SDS011;64449;50.016;19.954;2022-11-15T01:27:03;15.20;;;7.90;;
75810;SDS011;64449;50.016;19.954;2022-11-15T01:29:28;12.80;;;6.90;;
75810;SDS011;64449;50.016;19.954;2022-11-15T01:31:54;12.10;;;6.30;;
75810;SDS011;64449;50.016;19.954;2022-11-15T01:34:19;12.70;;;6.70;;
75810;SDS011;64449;50.016;19.954;2022-11-15T01:36:44;11.90;;;5.80;;
75810;SDS011;64449;50.016;19.954;2022-11-15T01:39:10;12.20;;;6.60;;
75810;SDS011;64449;50.016;19.954;2022-11-15T01:41:35;11.50;;;5.90;;
75810;SDS011;64449;50.016;19.954;2022-11-15T01:47:03;10.80;;;6.10;;
75810;SDS011;64449;50.016;19.954;2022-11-15T01:49:33;12.20;;;6.10;;
75810;SDS011;64449;50.016;19.954;2022-11-15T01:52:03;13.40;;;6.30;;
75810;SDS011;64449;50.016;19.954;2022-11-15T01:54:33;15.70;;;7.30;;
75810;SDS011;64449;50.016;19.954;2022-11-15T01:56:59;13.50;;;7.10;;
75810;SDS011;64449;50.016;19.954;2022-11-15T01:59:28;12.20;;;7.50;;
75810;SDS011;64449;50.016;19.954;2022-11-15T02:01:54;12.40;;;6.80;;
75810;SDS011;64449;50.016;19.954;2022-11-15T02:04:21;10.90;;;6.30;;
75810;SDS011;64449;50.016;19.954;2022-11-15T02:06:50;12.60;;;6.80;;
75810;SDS011;64449;50.016;19.954;2022-11-15T02:09:16;12.30;;;7.20;;
75810;SDS011;64449;50.016;19.954;2022-11-15T02:11:42;10.90;;;6.30;;
75810;SDS011;64449;50.016;19.954;2022-11-15T02:14:09;14.30;;;6.40;;
75810;SDS011;64449;50.016;19.954;2022-11-15T02:25:02;10.90;;;5.90;;
75810;SDS011;64449;50.016;19.954;2022-11-15T02:38:01;12.60;;;6.20;;
75810;SDS011;64449;50.016;19.954;2022-11-15T02:43:36;11.00;;;5.70;;
75810;SDS011;64449;50.016;19.954;2022-11-15T02:49:29;9.40;;;4.80;;
75810;SDS011;64449;50.016;19.954;2022-11-15T02:51:57;9.90;;;5.10;;
75810;SDS011;64449;50.016;19.954;2022-11-15T02:54:28;11.90;;;6.10;;
75810;SDS011;64449;50.016;19.954;2022-11-15T02:56:57;9.90;;;5.70;;
75810;SDS011;64449;50.016;19.954;2022-11-15T03:11:11;8.00;;;4.70;;
75810;SDS011;64449;50.016;19.954;2022-11-15T03:13:40;8.90;;;4.90;;
75810;SDS011;64449;50.016;19.954;2022-11-15T03:16:15;10.00;;;4.90;;
75810;SDS011;64449;50.016;19.954;2022-11-15T03:18:58;9.80;;;4.90;;
75810;SDS011;64449;50.016;19.954;2022-11-15T03:21:29;8.30;;;4.80;;
75810;SDS011;64449;50.016;19.954;2022-11-15T03:23:57;8.90;;;5.10;;
75810;SDS011;64449;50.016;19.954;2022-11-15T03:26:25;8.60;;;4.90;;
75810;SDS011;64449;50.016;19.954;2022-11-15T03:28:57;8.90;;;5.10;;
75810;SDS011;64449;50.016;19.954;2022-11-15T03:31:26;9.70;;;6.00;;
75810;SDS011;64449;50.016;19.954;2022-11-15T03:34:19;7.80;;;4.10;;
75810;SDS011;64449;50.016;19.954;2022-11-15T03:36:44;10.30;;;5.70;;
75810;SDS011;64449;50.016;19.954;2022-11-15T03:39:10;9.60;;;5.60;;
75810;SDS011;64449;50.016;19.954;2022-11-15T03:41:40;10.70;;;5.10;;
75810;SDS011;64449;50.016;19.954;2022-11-15T03:46:39;9.40;;;5.50;;
75810;SDS011;64449;50.016;19.954;2022-11-15T03:51:38;8.30;;;4.90;;
75810;SDS011;64449;50.016;19.954;2022-11-15T03:54:04;9.00;;;5.20;;
75810;SDS011;64449;50.016;19.954;2022-11-15T03:56:30;10.10;;;5.50;;
75810;SDS011;64449;50.016;19.954;2022-11-15T03:58:55;11.20;;;5.90;;
75810;SDS011;64449;50.016;19.954;2022-11-15T04:01:21;8.40;;;5.40;;
75810;SDS011;64449;50.016;19.954;2022-11-15T04:03:46;7.70;;;5.30;;
75810;SDS011;64449;50.016;19.954;2022-11-15T04:06:12;8.50;;;5.20;;
75810;SDS011;64449;50.016;19.954;2022-11-15T04:08:37;8.50;;;4.60;;
75810;SDS011;64449;50.016;19.954;2022-11-15T04:11:02;8.40;;;4.80;;
75810;SDS011;64449;50.016;19.954;2022-11-15T04:13:28;9.40;;;5.20;;
75810;SDS011;64449;50.016;19.954;2022-11-15T04:15:53;9.90;;;5.50;;
75810;SDS011;64449;50.016;19.954;2022-11-15T04:18:19;8.70;;;5.10;;
75810;SDS011;64449;50.016;19.954;2022-11-15T04:20:44;9.80;;;6.40;;
75810;SDS011;64449;50.016;19.954;2022-11-15T04:26:14;6.50;;;4.10;;
75810;SDS011;64449;50.016;19.954;2022-11-15T04:28:42;8.00;;;5.10;;
75810;SDS011;64449;50.016;19.954;2022-11-15T04:31:26;8.50;;;5.10;;
75810;SDS011;64449;50.016;19.954;2022-11-15T04:33:52;6.60;;;4.40;;
75810;SDS011;64449;50.016;19.954;2022-11-15T04:36:17;8.70;;;5.00;;
75810;SDS011;64449;50.016;19.954;2022-11-15T04:39:02;9.20;;;5.20;;
75810;SDS011;64449;50.016;19.954;2022-11-15T04:41:28;8.70;;;5.30;;
75810;SDS011;64449;50.016;19.954;2022-11-15T04:43:54;8.70;;;5.20;;
75810;SDS011;64449;50.016;19.954;2022-11-15T04:46:20;9.70;;;6.10;;
75810;SDS011;64449;50.016;19.954;2022-11-15T04:48:46;8.10;;;5.10;;
75810;SDS011;64449;50.016;19.954;2022-11-15T04:51:12;10.90;;;6.20;;
75810;SDS011;64449;50.016;19.954;2022-11-15T04:53:37;8.90;;;4.80;;
75810;SDS011;64449;50.016;19.954;2022-11-15T04:56:03;10.00;;;5.80;;
75810;SDS011;64449;50.016;19.954;2022-11-15T04:58:28;9.00;;;5.40;;
75810;SDS011;64449;50.016;19.954;2022-11-15T05:00:54;9.70;;;5.20;;
75810;SDS011;64449;50.016;19.954;2022-11-15T05:03:19;8.50;;;4.90;;
75810;SDS011;64449;50.016;19.954;2022-11-15T05:06:03;9.30;;;5.40;;
75810;SDS011;64449;50.016;19.954;2022-11-15T05:08:29;10.30;;;6.20;;
75810;SDS011;64449;50.016;19.954;2022-11-15T05:10:54;8.80;;;5.70;;
75810;SDS011;64449;50.016;19.954;2022-11-15T05:13:20;10.10;;;5.90;;
75810;SDS011;64449;50.016;19.954;2022-11-15T05:15:45;8.30;;;5.00;;
75810;SDS011;64449;50.016;19.954;2022-11-15T05:18:10;7.60;;;4.90;;
75810;SDS011;64449;50.016;19.954;2022-11-15T05:20:36;7.40;;;4.40;;
75810;SDS011;64449;50.016;19.954;2022-11-15T05:23:01;8.50;;;4.90;;
75810;SDS011;64449;50.016;19.954;2022-11-15T05:25:27;9.10;;;5.00;;
75810;SDS011;64449;50.016;19.954;2022-11-15T05:27:53;10.20;;;6.10;;
75810;SDS011;64449;50.016;19.954;2022-11-15T05:30:18;8.70;;;4.90;;
75810;SDS011;64449;50.016;19.954;2022-11-15T05:32:44;9.20;;;5.20;;
75810;SDS011;64449;50.016;19.954;2022-11-15T05:35:12;7.90;;;4.30;;
75810;SDS011;64449;50.016;19.954;2022-11-15T05:37:43;7.70;;;4.70;;
75810;SDS011;64449;50.016;19.954;2022-11-15T05:40:09;7.30;;;4.60;;
75810;SDS011;64449;50.016;19.954;2022-11-15T05:42:34;7.40;;;3.80;;
75810;SDS011;64449;50.016;19.954;2022-11-15T05:45:00;7.40;;;4.30;;
75810;SDS011;64449;50.016;19.954;2022-11-15T05:47:28;8.80;;;4.70;;
75810;SDS011;64449;50.016;19.954;2022-11-15T05:49:55;8.30;;;5.20;;
75810;SDS011;64449;50.016;19.954;2022-11-15T05:52:22;8.50;;;4.90;;
75810;SDS011;64449;50.016;19.954;2022-11-15T05:54:53;12.40;;;5.70;;
75810;SDS011;64449;50.016;19.954;2022-11-15T05:57:19;8.00;;;5.30;;
75810;SDS011;64449;50.016;19.954;2022-11-15T05:59:45;7.90;;;4.60;;
75810;SDS011;64449;50.016;19.954;2022-11-15T06:02:10;7.40;;;4.00;;
75810;SDS011;64449;50.016;19.954;2022-11-15T06:04:36;14.90;;;9.10;;
75810;SDS011;64449;50.016;19.954;2022-11-15T06:07:01;10.90;;;6.10;;
75810;SDS011;64449;50.016;19.954;2022-11-15T06:09:27;10.20;;;5.90;;
75810;SDS011;64449;50.016;19.954;2022-11-15T06:11:52;7.80;;;4.70;;
75810;SDS011;64449;50.016;19.954;2022-11-15T06:14:18;9.10;;;5.90;;
75810;SDS011;64449;50.016;19.954;2022-11-15T06:16:43;8.60;;;4.80;;
75810;SDS011;64449;50.016;19.954;2022-11-15T06:19:09;8.00;;;4.90;;
75810;SDS011;64449;50.016;19.954;2022-11-15T06:21:34;12.20;;;6.10;;
75810;SDS011;64449;50.016;19.954;2022-11-15T06:24:00;9.30;;;4.80;;
75810;SDS011;64449;50.016;19.954;2022-11-15T06:26:25;7.60;;;4.40;;
75810;SDS011;64449;50.016;19.954;2022-11-15T06:28:51;7.20;;;4.30;;
75810;SDS011;64449;50.016;19.954;2022-11-15T06:33:41;7.10;;;3.70;;
75810;SDS011;64449;50.016;19.954;2022-11-15T06:36:08;7.70;;;4.40;;
75810;SDS011;64449;50.016;19.954;2022-11-15T06:38:35;7.90;;;3.70;;
75810;SDS011;64449;50.016;19.954;2022-11-15T06:41:01;11.60;;;6.20;;
75810;SDS011;64449;50.016;19.954;2022-11-15T06:43:28;9.70;;;5.40;;
75810;SDS011;64449;50.016;19.954;2022-11-15T06:48:18;10.00;;;5.10;;
75810;SDS011;64449;50.016;19.954;2022-11-15T06:53:15;7.50;;;4.30;;
75810;SDS011;64449;50.016;19.954;2022-11-15T06:58:06;8.80;;;4.40;;
75810;SDS011;64449;50.016;19.954;2022-11-15T07:02:59;13.30;;;5.90;;
75810;SDS011;64449;50.016;19.954;2022-11-15T07:05:25;7.70;;;4.50;;
75810;SDS011;64449;50.016;19.954;2022-11-15T07:07:52;8.90;;;5.20;;
75810;SDS011;64449;50.016;19.954;2022-11-15T07:10:18;7.90;;;5.00;;
75810;SDS011;64449;50.016;19.954;2022-11-15T07:12:46;8.20;;;4.90;;
75810;SDS011;64449;50.016;19.954;2022-11-15T07:15:13;9.50;;;5.40;;
75810;SDS011;64449;50.016;19.954;2022-11-15T07:17:42;7.70;;;5.20;;
75810;SDS011;64449;50.016;19.954;2022-11-15T07:20:08;9.50;;;5.30;;
75810;SDS011;64449;50.016;19.954;2022-11-15T07:22:34;8.70;;;4.90;;
75810;SDS011;64449;50.016;19.954;2022-11-15T07:24:59;8.10;;;5.20;;
75810;SDS011;64449;50.016;19.954;2022-11-15T07:27:24;8.00;;;4.50;;
75810;SDS011;64449;50.016;19.954;2022-11-15T07:29:50;8.90;;;4.90;;
75810;SDS011;64449;50.016;19.954;2022-11-15T07:32:15;6.40;;;4.00;;
75810;SDS011;64449;50.016;19.954;2022-11-15T07:34:41;11.10;;;4.60;;
75810;SDS011;64449;50.016;19.954;2022-11-15T07:37:06;7.90;;;4.20;;
75810;SDS011;64449;50.016;19.954;2022-11-15T07:39:31;8.00;;;4.60;;
75810;SDS011;64449;50.016;19.954;2022-11-15T07:41:57;10.60;;;4.60;;
75810;SDS011;64449;50.016;19.954;2022-11-15T07:44:41;8.40;;;4.60;;
75810;SDS011;64449;50.016;19.954;2022-11-15T07:47:06;8.70;;;5.60;;
75810;SDS011;64449;50.016;19.954;2022-11-15T07:49:32;9.00;;;5.00;;
75810;SDS011;64449;50.016;19.954;2022-11-15T07:51:57;8.50;;;4.90;;
75810;SDS011;64449;50.016;19.954;2022-11-15T07:54:22;6.60;;;4.50;;
75810;SDS011;64449;50.016;19.954;2022-11-15T07:56:48;9.30;;;5.20;;
75810;SDS011;64449;50.016;19.954;2022-11-15T07:59:13;8.40;;;5.00;;
75810;SDS011;64449;50.016;19.954;2022-11-15T08:01:38;11.80;;;7.00;;
75810;SDS011;64449;50.016;19.954;2022-11-15T08:04:04;10.40;;;6.50;;
75810;SDS011;64449;50.016;19.954;2022-11-15T08:06:29;9.50;;;5.80;;
75810;SDS011;64449;50.016;19.954;2022-11-15T08:08:55;10.20;;;5.20;;
75810;SDS011;64449;50.016;19.954;2022-11-15T08:11:20;10.80;;;5.40;;
75810;SDS011;64449;50.016;19.954;2022-11-15T08:13:46;10.10;;;5.80;;
75810;SDS011;64449;50.016;19.954;2022-11-15T08:16:11;8.20;;;4.40;;
75810;SDS011;64449;50.016;19.954;2022-11-15T08:18:37;10.00;;;5.20;;
75810;SDS011;64449;50.016;19.954;2022-11-15T08:21:02;9.70;;;5.30;;
75810;SDS011;64449;50.016;19.954;2022-11-15T08:23:28;9.50;;;5.90;;
75810;SDS011;64449;50.016;19.954;2022-11-15T08:25:58;11.00;;;5.90;;
75810;SDS011;64449;50.016;19.954;2022-11-15T08:28:25;9.40;;;5.00;;
75810;SDS011;64449;50.016;19.954;2022-11-15T08:30:50;12.30;;;5.80;;
75810;SDS011;64449;50.016;19.954;2022-11-15T08:33:15;12.30;;;6.50;;
75810;SDS011;64449;50.016;19.954;2022-11-15T08:35:41;15.10;;;6.70;;
75810;SDS011;64449;50.016;19.954;2022-11-15T08:38:08;10.80;;;5.80;;
75810;SDS011;64449;50.016;19.954;2022-11-15T08:40:33;11.40;;;6.50;;
75810;SDS011;64449;50.016;19.954;2022-11-15T08:43:00;7.80;;;4.50;;
75810;SDS011;64449;50.016;19.954;2022-11-15T08:45:27;12.90;;;6.70;;
75810;SDS011;64449;50.016;19.954;2022-11-15T08:47:53;13.40;;;7.70;;
75810;SDS011;64449;50.016;19.954;2022-11-15T08:50:19;12.70;;;6.30;;
75810;SDS011;64449;50.016;19.954;2022-11-15T08:52:45;14.80;;;6.90;;
75810;SDS011;64449;50.016;19.954;2022-11-15T08:55:10;13.50;;;6.90;;
75810;SDS011;64449;50.016;19.954;2022-11-15T08:57:36;13.50;;;6.60;;
75810;SDS011;64449;50.016;19.954;2022-11-15T09:00:02;12.00;;;6.70;;
75810;SDS011;64449;50.016;19.954;2022-11-15T09:02:28;13.80;;;7.80;;
75810;SDS011;64449;50.016;19.954;2022-11-15T09:04:54;13.00;;;7.90;;
75810;SDS011;64449;50.016;19.954;2022-11-15T09:07:19;11.70;;;6.50;;
75810;SDS011;64449;50.016;19.954;2022-11-15T09:09:44;13.20;;;7.40;;
75810;SDS011;64449;50.016;19.954;2022-11-15T09:12:10;14.30;;;7.60;;
75810;SDS011;64449;50.016;19.954;2022-11-15T09:14:35;15.70;;;8.10;;
75810;SDS011;64449;50.016;19.954;2022-11-15T09:17:01;16.20;;;7.80;;
75810;SDS011;64449;50.016;19.954;2022-11-15T09:19:26;15.90;;;7.30;;
75810;SDS011;64449;50.016;19.954;2022-11-15T09:21:52;19.10;;;7.70;;
75810;SDS011;64449;50.016;19.954;2022-11-15T09:24:18;13.30;;;7.40;;
75810;SDS011;64449;50.016;19.954;2022-11-15T09:26:43;13.90;;;7.90;;
75810;SDS011;64449;50.016;19.954;2022-11-15T09:29:09;12.80;;;8.00;;
75810;SDS011;64449;50.016;19.954;2022-11-15T09:31:35;15.30;;;7.40;;
75810;SDS011;64449;50.016;19.954;2022-11-15T09:34:00;18.30;;;8.10;;
75810;SDS011;64449;50.016;19.954;2022-11-15T09:36:25;13.80;;;7.50;;
75810;SDS011;64449;50.016;19.954;2022-11-15T09:38:51;13.00;;;6.40;;
75810;SDS011;64449;50.016;19.954;2022-11-15T09:41:25;14.80;;;7.90;;
75810;SDS011;64449;50.016;19.954;2022-11-15T09:49:18;16.20;;;8.30;;
75810;SDS011;64449;50.016;19.954;2022-11-15T09:51:45;16.40;;;8.80;;
75810;SDS011;64449;50.016;19.954;2022-11-15T09:54:17;13.00;;;7.90;;
75810;SDS011;64449;50.016;19.954;2022-11-15T09:56:46;13.90;;;7.90;;
75810;SDS011;64449;50.016;19.954;2022-11-15T10:04:30;13.60;;;8.00;;
75810;SDS011;64449;50.016;19.954;2022-11-15T10:06:59;16.40;;;9.00;;
75810;SDS011;64449;50.016;19.954;2022-11-15T10:09:31;14.90;;;7.90;;
75810;SDS011;64449;50.016;19.954;2022-11-15T10:12:06;14.10;;;8.00;;
75810;SDS011;64449;50.016;19.954;2022-11-15T10:14:33;15.80;;;8.10;;
75810;SDS011;64449;50.016;19.954;2022-11-15T10:22:21;16.00;;;9.10;;
75810;SDS011;64449;50.016;19.954;2022-11-15T10:24:48;15.40;;;8.50;;
75810;SDS011;64449;50.016;19.954;2022-11-15T10:27:17;14.30;;;9.10;;
75810;SDS011;64449;50.016;19.954;2022-11-15T10:29:47;16.70;;;9.30;;
75810;SDS011;64449;50.016;19.954;2022-11-15T10:32:15;18.60;;;8.80;;
75810;SDS011;64449;50.016;19.954;2022-11-15T10:34:42;15.20;;;9.10;;
75810;SDS011;64449;50.016;19.954;2022-11-15T10:37:08;16.40;;;9.70;;
75810;SDS011;64449;50.016;19.954;2022-11-15T10:39:33;12.50;;;6.40;;
75810;SDS011;64449;50.016;19.954;2022-11-15T10:42:14;14.00;;;8.50;;
75810;SDS011;64449;50.016;19.954;2022-11-15T10:44:50;15.10;;;9.50;;
75810;SDS011;64449;50.016;19.954;2022-11-15T10:50:25;12.70;;;7.50;;
75810;SDS011;64449;50.016;19.954;2022-11-15T10:52:56;13.70;;;8.20;;
75810;SDS011;64449;50.016;19.954;2022-11-15T10:55:24;14.20;;;8.70;;
75810;SDS011;64449;50.016;19.954;2022-11-15T10:57:53;16.40;;;9.60;;
75810;SDS011;64449;50.016;19.954;2022-11-15T11:00:31;16.90;;;8.40;;
75810;SDS011;64449;50.016;19.954;2022-11-15T11:03:03;15.80;;;9.10;;
75810;SDS011;64449;50.016;19.954;2022-11-15T11:05:34;16.10;;;10.10;;
75810;SDS011;64449;50.016;19.954;2022-11-15T11:08:03;13.40;;;8.80;;
75810;SDS011;64449;50.016;19.954;2022-11-15T11:10:30;16.50;;;9.60;;
75810;SDS011;64449;50.016;19.954;2022-11-15T11:13:10;14.70;;;9.20;;
75810;SDS011;64449;50.016;19.954;2022-11-15T11:15:38;14.80;;;10.20;;
75810;SDS011;64449;50.016;19.954;2022-11-15T11:18:06;15.10;;;10.00;;
75810;SDS011;64449;50.016;19.954;2022-11-15T11:20:39;13.70;;;9.70;;
75810;SDS011;64449;50.016;19.954;2022-11-15T11:37:19;16.50;;;11.30;;
75810;SDS011;64449;50.016;19.954;2022-11-15T11:43:06;21.00;;;11.90;;
75810;SDS011;64449;50.016;19.954;2022-11-15T11:48:48;17.80;;;10.80;;
75810;SDS011;64449;50.016;19.954;2022-11-15T11:51:09;19.00;;;12.20;;
75810;SDS011;64449;50.016;19.954;2022-11-15T11:54:03;20.80;;;12.90;;
75810;SDS011;64449;50.016;19.954;2022-11-15T11:56:36;18.80;;;12.10;;
75810;SDS011;64449;50.016;19.954;2022-11-15T12:02:08;17.40;;;10.70;;
75810;SDS011;64449;50.016;19.954;2022-11-15T12:04:40;23.40;;;15.70;;
75810;SDS011;64449;50.016;19.954;2022-11-15T12:09:53;24.00;;;15.00;;
75810;SDS011;64449;50.016;19.954;2022-11-15T12:12:52;23.10;;;14.00;;
75810;SDS011;64449;50.016;19.954;2022-11-15T12:15:31;26.70;;;15.30;;
75810;SDS011;64449;50.016;19.954;2022-11-15T12:18:02;23.90;;;15.70;;
75810;SDS011;64449;50.016;19.954;2022-11-15T12:20:29;31.20;;;17.30;;
75810;SDS011;64449;50.016;19.954;2022-11-15T12:27:59;30.10;;;17.10;;
75810;SDS011;64449;50.016;19.954;2022-11-15T12:31:26;26.90;;;17.60;;
75810;SDS011;64449;50.016;19.954;2022-11-15T12:35:59;28.40;;;17.50;;
75810;SDS011;64449;50.016;19.954;2022-11-15T12:41:32;28.80;;;16.70;;
75810;SDS011;64449;50.016;19.954;2022-11-15T12:43:59;28.30;;;16.90;;
75810;SDS011;64449;50.016;19.954;2022-11-15T12:49:01;23.40;;;15.30;;
75810;SDS011;64449;50.016;19.954;2022-11-15T13:02:27;27.00;;;15.20;;
75810;SDS011;64449;50.016;19.954;2022-11-15T13:17:37;31.20;;;16.90;;
75810;SDS011;64449;50.016;19.954;2022-11-15T13:27:45;25.90;;;14.70;;
75810;SDS011;64449;50.016;19.954;2022-11-15T13:30:22;27.40;;;15.70;;
75810;SDS011;64449;50.016;19.954;2022-11-15T13:32:49;20.30;;;13.40;;
75810;SDS011;64449;50.016;19.954;2022-11-15T13:35:28;24.50;;;15.00;;
75810;SDS011;64449;50.016;19.954;2022-11-15T13:37:56;28.10;;;15.10;;
75810;SDS011;64449;50.016;19.954;2022-11-15T13:40:29;24.80;;;14.60;;
75810;SDS011;64449;50.016;19.954;2022-11-15T13:43:15;23.20;;;14.70;;
75810;SDS011;64449;50.016;19.954;2022-11-15T13:48:54;24.10;;;15.00;;
75810;SDS011;64449;50.016;19.954;2022-11-15T13:51:23;27.20;;;15.20;;
75810;SDS011;64449;50.016;19.954;2022-11-15T13:53:57;24.90;;;13.90;;
75810;SDS011;64449;50.016;19.954;2022-11-15T13:56:28;19.80;;;12.30;;
75810;SDS011;64449;50.016;19.954;2022-11-15T13:58:57;20.50;;;13.30;;
75810;SDS011;64449;50.016;19.954;2022-11-15T14:01:22;25.90;;;13.90;;
75810;SDS011;64449;50.016;19.954;2022-11-15T14:03:54;21.30;;;13.10;;
75810;SDS011;64449;50.016;19.954;2022-11-15T14:06:23;22.70;;;13.90;;
75810;SDS011;64449;50.016;19.954;2022-11-15T14:11:26;22.90;;;12.50;;
75810;SDS011;64449;50.016;19.954;2022-11-15T14:16:37;20.40;;;13.10;;
75810;SDS011;64449;50.016;19.954;2022-11-15T14:21:31;20.60;;;12.20;;
75810;SDS011;64449;50.016;19.954;2022-11-15T14:26:55;25.30;;;14.10;;
75810;SDS011;64449;50.016;19.954;2022-11-15T14:29:29;24.90;;;15.20;;
75810;SDS011;64449;50.016;19.954;2022-11-15T14:34:44;24.20;;;14.00;;
75810;SDS011;64449;50.016;19.954;2022-11-15T14:37:16;22.30;;;14.10;;
75810;SDS011;64449;50.016;19.954;2022-11-15T14:39:45;26.40;;;15.30;;
75810;SDS011;64449;50.016;19.954;2022-11-15T14:42:10;26.00;;;15.20;;
75810;SDS011;64449;50.016;19.954;2022-11-15T14:44:36;29.20;;;15.60;;
75810;SDS011;64449;50.016;19.954;2022-11-15T14:47:01;24.20;;;15.20;;
75810;SDS011;64449;50.016;19.954;2022-11-15T14:49:27;27.00;;;15.60;;
75810;SDS011;64449;50.016;19.954;2022-11-15T14:51:52;24.40;;;13.70;;
75810;SDS011;64449;50.016;19.954;2022-11-15T14:54:17;27.30;;;16.30;;
75810;SDS011;64449;50.016;19.954;2022-11-15T14:56:43;25.40;;;14.70;;
75810;SDS011;64449;50.016;19.954;2022-11-15T14:59:08;25.60;;;15.80;;
75810;SDS011;64449;50.016;19.954;2022-11-15T15:01:33;28.00;;;16.90;;
75810;SDS011;64449;50.016;19.954;2022-11-15T15:03:59;29.40;;;16.30;;
75810;SDS011;64449;50.016;19.954;2022-11-15T15:06:24;28.90;;;16.40;;
75810;SDS011;64449;50.016;19.954;2022-11-15T15:08:50;25.30;;;14.80;;
75810;SDS011;64449;50.016;19.954;2022-11-15T15:11:25;26.60;;;16.50;;
75810;SDS011;64449;50.016;19.954;2022-11-15T15:13:53;24.40;;;14.90;;
75810;SDS011;64449;50.016;19.954;2022-11-15T15:16:22;24.50;;;14.40;;
75810;SDS011;64449;50.016;19.954;2022-11-15T15:18:47;30.80;;;16.90;;
75810;SDS011;64449;50.016;19.954;2022-11-15T15:23:41;30.50;;;17.20;;
75810;SDS011;64449;50.016;19.954;2022-11-15T15:26:06;32.00;;;19.00;;
75810;SDS011;64449;50.016;19.954;2022-11-15T15:28:32;26.10;;;16.30;;
75810;SDS011;64449;50.016;19.954;2022-11-15T15:30:57;30.20;;;18.30;;
75810;SDS011;64449;50.016;19.954;2022-11-15T15:33:22;34.00;;;20.90;;
75810;SDS011;64449;50.016;19.954;2022-11-15T15:35:48;27.00;;;15.50;;
75810;SDS011;64449;50.016;19.954;2022-11-15T15:38:14;25.30;;;15.10;;
75810;SDS011;64449;50.016;19.954;2022-11-15T15:40:40;26.40;;;14.90;;
75810;SDS011;64449;50.016;19.954;2022-11-15T15:43:05;28.20;;;16.20;;
75810;SDS011;64449;50.016;19.954;2022-11-15T15:45:33;33.40;;;19.10;;
75810;SDS011;64449;50.016;19.954;2022-11-15T15:48:01;31.40;;;20.00;;
75810;SDS011;64449;50.016;19.954;2022-11-15T15:50:27;30.20;;;17.00;;
75810;SDS011;64449;50.016;19.954;2022-11-15T15:52:56;26.80;;;16.30;;
75810;SDS011;64449;50.016;19.954;2022-11-15T15:55:23;25.20;;;16.30;;
75810;SDS011;64449;50.016;19.954;2022-11-15T15:57:49;35.50;;;19.40;;
75810;SDS011;64449;50.016;19.954;2022-11-15T16:00:15;37.60;;;24.60;;
75810;SDS011;64449;50.016;19.954;2022-11-15T16:02:41;34.40;;;20.00;;
75810;SDS011;64449;50.016;19.954;2022-11-15T16:05:07;34.30;;;20.70;;
75810;SDS011;64449;50.016;19.954;2022-11-15T16:07:33;28.40;;;18.60;;
75810;SDS011;64449;50.016;19.954;2022-11-15T16:09:59;28.70;;;16.60;;
75810;SDS011;64449;50.016;19.954;2022-11-15T16:12:25;26.80;;;16.60;;
75810;SDS011;64449;50.016;19.954;2022-11-15T16:14:57;26.90;;;16.90;;
75810;SDS011;64449;50.016;19.954;2022-11-15T16:17:24;31.80;;;19.80;;
75810;SDS011;64449;50.016;19.954;2022-11-15T16:19:51;27.90;;;16.90;;
75810;SDS011;64449;50.016;19.954;2022-11-15T16:22:17;28.40;;;17.90;;
75810;SDS011;64449;50.016;19.954;2022-11-15T16:24:42;33.30;;;20.70;;
75810;SDS011;64449;50.016;19.954;2022-11-15T16:27:12;33.80;;;18.90;;
75810;SDS011;64449;50.016;19.954;2022-11-15T16:29:42;33.70;;;18.70;;
75810;SDS011;64449;50.016;19.954;2022-11-15T16:32:08;31.70;;;18.00;;
75810;SDS011;64449;50.016;19.954;2022-11-15T16:34:34;32.10;;;19.20;;
75810;SDS011;64449;50.016;19.954;2022-11-15T16:36:59;27.90;;;17.80;;
75810;SDS011;64449;50.016;19.954;2022-11-15T16:39:25;29.50;;;18.20;;
75810;SDS011;64449;50.016;19.954;2022-11-15T16:41:52;32.80;;;16.60;;
75810;SDS011;64449;50.016;19.954;2022-11-15T16:44:18;28.10;;;16.70;;
75810;SDS011;64449;50.016;19.954;2022-11-15T16:46:43;28.80;;;17.60;;
75810;SDS011;64449;50.016;19.954;2022-11-15T16:49:13;27.30;;;16.10;;
75810;SDS011;64449;50.016;19.954;2022-11-15T16:51:39;29.00;;;16.70;;
75810;SDS011;64449;50.016;19.954;2022-11-15T16:54:05;28.40;;;16.90;;
75810;SDS011;64449;50.016;19.954;2022-11-15T16:56:31;24.30;;;16.10;;
75810;SDS011;64449;50.016;19.954;2022-11-15T16:58:57;27.50;;;16.70;;
75810;SDS011;64449;50.016;19.954;2022-11-15T17:01:25;27.40;;;16.60;;
75810;SDS011;64449;50.016;19.954;2022-11-15T17:04:10;29.70;;;19.90;;
75810;SDS011;64449;50.016;19.954;2022-11-15T17:06:38;29.40;;;18.60;;
75810;SDS011;64449;50.016;19.954;2022-11-15T17:09:05;31.10;;;17.80;;
75810;SDS011;64449;50.016;19.954;2022-11-15T17:11:31;29.40;;;18.40;;
75810;SDS011;64449;50.016;19.954;2022-11-15T17:13:57;29.80;;;18.10;;